createdAt,value
2018-07-26T00:00:20.212Z,55.00
2018-07-26T00:02:48.492Z,55.30
2018-07-26T00:05:16.705Z,55.50
2018-07-26T00:10:13.126Z,55.70
2018-07-26T00:12:41.402Z,55.80
2018-07-26T00:15:09.678Z,55.90
2018-07-26T00:17:38.005Z,56.10
2018-07-26T00:20:06.960Z,56.10
2018-07-26T00:22:35.216Z,56.30
2018-07-26T00:25:03.412Z,56.40
2018-07-26T00:27:31.728Z,56.90
2018-07-26T00:30:00.545Z,56.80
2018-07-26T00:32:29.350Z,56.90
2018-07-26T00:34:57.740Z,57.00
2018-07-26T00:37:26.080Z,57.00
2018-07-26T00:39:54.204Z,57.20
2018-07-26T00:42:22.443Z,58.10
2018-07-26T00:44:50.683Z,57.60
2018-07-26T00:47:18.919Z,57.90
2018-07-26T00:49:47.083Z,58.10
2018-07-26T00:52:16.010Z,58.20
2018-07-26T00:57:12.395Z,59.00
2018-07-26T00:59:40.547Z,58.60
2018-07-26T01:04:36.923Z,58.90
2018-07-26T01:07:05.205Z,59.00
2018-07-26T01:09:33.542Z,59.00
2018-07-26T01:12:01.697Z,59.20
2018-07-26T01:14:31.059Z,59.30
2018-07-26T01:16:59.373Z,59.40
2018-07-26T01:19:27.599Z,59.30
2018-07-26T01:21:55.931Z,59.60
2018-07-26T01:24:24.171Z,59.70
2018-07-26T01:26:52.523Z,59.80
2018-07-26T01:29:20.819Z,60.10
2018-07-26T01:31:53.083Z,60.30
2018-07-26T01:34:22.805Z,60.60
2018-07-26T01:36:51.309Z,60.70
2018-07-26T01:39:19.475Z,60.70
2018-07-26T01:41:48.305Z,60.70
2018-07-26T01:44:21.973Z,60.90
2018-07-26T01:46:50.110Z,61.10
2018-07-26T01:49:18.635Z,61.50
2018-07-26T01:51:46.827Z,61.30
2018-07-26T01:54:15.552Z,61.30
2018-07-26T01:56:43.942Z,61.40
2018-07-26T01:59:12.165Z,61.40
2018-07-26T02:01:40.601Z,61.60
2018-07-26T02:04:08.952Z,61.80
2018-07-26T02:06:37.243Z,61.80
2018-07-26T02:11:35.956Z,62.20
2018-07-26T02:14:04.654Z,62.10
2018-07-26T02:16:32.862Z,62.10
2018-07-26T02:19:01.167Z,62.20
2018-07-26T02:21:29.289Z,62.30
2018-07-26T02:23:57.560Z,62.40
2018-07-26T02:26:25.747Z,62.50
2018-07-26T02:28:53.971Z,62.70
2018-07-26T02:31:22.149Z,62.90
2018-07-26T02:33:50.580Z,64.00
2018-07-26T02:36:18.828Z,63.40
2018-07-26T02:38:47.037Z,63.70
2018-07-26T02:41:15.193Z,64.00
2018-07-26T02:43:43.489Z,64.20
2018-07-26T02:46:11.671Z,64.30
2018-07-26T02:48:39.815Z,64.30
2018-07-26T02:51:08.019Z,64.70
2018-07-26T02:53:36.333Z,65.00
2018-07-26T02:56:04.733Z,65.30
2018-07-26T02:58:32.873Z,66.40
2018-07-26T03:01:01.116Z,66.10
2018-07-26T03:03:29.383Z,66.40
2018-07-26T03:05:57.597Z,66.90
2018-07-26T03:08:25.952Z,67.00
2018-07-26T03:10:54.181Z,67.20
2018-07-26T03:15:50.619Z,67.80
2018-07-26T03:18:18.838Z,67.80
2018-07-26T03:20:47.640Z,68.70
2018-07-26T03:23:16.726Z,67.90
2018-07-26T03:25:44.844Z,67.80
2018-07-26T03:28:13.259Z,67.60
2018-07-26T03:30:41.378Z,67.40
2018-07-26T03:33:09.494Z,67.60
2018-07-26T03:35:37.783Z,67.80
2018-07-26T03:38:06.266Z,67.90
2018-07-26T03:40:34.651Z,67.90
2018-07-26T03:43:02.978Z,67.70
2018-07-26T03:45:31.254Z,67.80
2018-07-26T03:47:59.356Z,67.80
2018-07-26T03:50:27.530Z,67.70
2018-07-26T03:55:23.974Z,68.00
2018-07-26T03:57:52.304Z,68.10
2018-07-26T04:00:20.637Z,68.90
2018-07-26T04:05:17.101Z,68.20
2018-07-26T04:10:14.191Z,68.40
2018-07-26T04:17:38.927Z,68.60
2018-07-26T04:20:07.274Z,68.60
2018-07-26T04:22:35.461Z,68.60
2018-07-26T04:25:03.847Z,68.50
2018-07-26T04:27:32.009Z,68.40
2018-07-26T04:30:00.319Z,68.20
2018-07-26T04:32:28.667Z,68.00
2018-07-26T04:34:57.023Z,68.10
2018-07-26T04:37:25.263Z,67.90
2018-07-26T04:39:53.435Z,68.90
2018-07-26T04:42:21.605Z,68.00
2018-07-26T04:44:49.921Z,67.80
2018-07-26T04:47:18.197Z,67.60
2018-07-26T04:49:46.416Z,67.60
2018-07-26T04:52:14.637Z,67.50
2018-07-26T04:54:42.835Z,67.10
2018-07-26T04:57:10.954Z,67.10
2018-07-26T04:59:39.136Z,67.00
2018-07-26T05:02:07.486Z,67.00
2018-07-26T05:04:35.834Z,66.90
2018-07-26T05:07:04.086Z,66.90
2018-07-26T05:09:32.316Z,66.80
2018-07-26T05:12:00.640Z,66.60
2018-07-26T05:14:28.894Z,66.30
2018-07-26T05:16:57.108Z,66.10
2018-07-26T05:19:25.308Z,66.40
2018-07-26T05:24:21.559Z,64.50
2018-07-26T05:29:18.534Z,62.20
2018-07-26T05:31:46.890Z,60.40
2018-07-26T05:36:43.314Z,58.60
2018-07-26T05:39:11.698Z,56.70
2018-07-26T05:41:40.592Z,55.90
2018-07-26T05:44:08.781Z,54.60
2018-07-26T05:46:37.817Z,53.10
2018-07-26T05:49:06.049Z,52.20
2018-07-26T05:54:02.481Z,50.90
2018-07-26T05:56:30.723Z,50.00
2018-07-26T05:58:58.837Z,49.00
2018-07-26T06:01:27.062Z,48.00
2018-07-26T06:03:55.677Z,46.90
2018-07-26T06:06:23.858Z,45.80
2018-07-26T06:08:51.965Z,44.30
2018-07-26T06:11:20.368Z,44.10
2018-07-26T06:13:48.465Z,42.40
2018-07-26T06:16:16.865Z,41.20
2018-07-26T06:18:45.067Z,40.80
2018-07-26T06:21:13.227Z,40.20
2018-07-26T06:23:41.843Z,39.10
2018-07-26T06:31:08.087Z,36.10
2018-07-26T06:33:36.298Z,35.90
2018-07-26T06:36:04.476Z,35.10
2018-07-26T06:38:32.644Z,34.50
2018-07-26T06:41:00.779Z,34.20
2018-07-26T06:43:29.127Z,34.40
2018-07-26T06:45:58.098Z,33.80
2018-07-26T06:48:26.244Z,33.10
2018-07-26T06:53:22.732Z,32.70
2018-07-26T06:55:50.953Z,32.50
2018-07-26T06:58:19.211Z,32.00
2018-07-26T07:00:47.524Z,31.50
2018-07-26T07:03:16.253Z,31.00
2018-07-26T07:05:45.076Z,30.70
2018-07-26T07:08:13.236Z,30.10
2018-07-26T07:10:41.408Z,28.90
2018-07-26T07:13:10.052Z,28.50
2018-07-26T07:15:38.172Z,27.70
2018-07-26T07:18:06.550Z,27.50
2018-07-26T07:20:34.733Z,27.30
2018-07-26T07:23:02.900Z,26.60
2018-07-26T07:25:31.787Z,26.60
2018-07-26T07:27:59.941Z,26.90
2018-07-26T07:30:28.124Z,25.90
2018-07-26T07:32:56.392Z,25.50
2018-07-26T07:35:24.630Z,25.70
2018-07-26T07:37:53.997Z,25.50
2018-07-26T07:40:22.222Z,25.00
2018-07-26T07:42:50.384Z,24.40
2018-07-26T07:45:18.812Z,24.70
2018-07-26T07:47:47.879Z,25.20
2018-07-26T07:50:17.195Z,25.40
2018-07-26T07:52:45.790Z,25.70
2018-07-26T07:55:15.299Z,26.90
2018-07-26T07:57:44.678Z,26.80
2018-07-26T08:00:12.990Z,27.10
2018-07-26T08:02:41.283Z,27.20
2018-07-26T08:05:09.760Z,26.40
2018-07-26T08:07:38.075Z,25.50
2018-07-26T08:12:36.557Z,23.00
2018-07-26T08:15:05.944Z,23.20
2018-07-26T08:17:34.555Z,23.10
2018-07-26T08:22:31.210Z,23.10
2018-07-26T08:27:27.811Z,23.30
2018-07-26T08:29:56.387Z,22.10
2018-07-26T08:32:24.783Z,21.60
2018-07-26T08:34:53.249Z,20.70
2018-07-26T08:37:21.557Z,19.00
2018-07-26T08:39:49.927Z,18.20
2018-07-26T08:42:18.362Z,18.00
2018-07-26T08:47:14.847Z,18.80
2018-07-26T08:49:43.081Z,18.50
2018-07-26T08:54:39.406Z,17.90
2018-07-26T08:57:07.752Z,17.40
2018-07-26T08:59:36.656Z,16.60
2018-07-26T09:02:05.768Z,16.70
2018-07-26T09:04:34.009Z,17.30
2018-07-26T09:07:02.424Z,17.50
2018-07-26T09:09:30.668Z,18.20
2018-07-26T09:12:00.000Z,17.80
2018-07-26T09:14:28.306Z,16.60
2018-07-26T09:16:56.532Z,16.20
2018-07-26T09:19:24.892Z,15.50
2018-07-26T09:21:53.102Z,15.90
2018-07-26T09:24:21.373Z,15.90
2018-07-26T09:26:49.516Z,15.80
2018-07-26T09:29:17.754Z,15.40
2018-07-26T09:31:46.069Z,15.00
2018-07-26T09:34:14.350Z,16.10
2018-07-26T09:36:42.494Z,15.40
2018-07-26T09:39:14.076Z,14.40
2018-07-26T09:41:42.325Z,14.50
2018-07-26T09:46:38.818Z,13.40
2018-07-26T09:49:06.980Z,12.30
2018-07-26T09:51:35.624Z,11.40
2018-07-26T09:54:04.111Z,12.10
2018-07-26T09:56:33.011Z,12.20
2018-07-26T09:59:01.458Z,12.40
2018-07-26T10:01:32.497Z,13.10
2018-07-26T10:04:00.645Z,11.80
2018-07-26T10:06:28.813Z,13.00
2018-07-26T10:08:57.226Z,13.90
2018-07-26T10:11:26.265Z,13.30
2018-07-26T10:16:23.288Z,11.40
2018-07-26T10:18:51.713Z,10.60
2018-07-26T10:23:47.969Z,10.20
2018-07-26T10:26:16.201Z,10.20
2018-07-26T10:28:44.440Z,9.90
2018-07-26T10:31:12.600Z,8.80
2018-07-26T10:33:40.874Z,8.60
2018-07-26T10:36:10.004Z,8.30
2018-07-26T10:38:38.066Z,8.10
2018-07-26T10:41:07.398Z,8.30
2018-07-26T10:43:35.644Z,8.50
2018-07-26T10:46:04.205Z,9.50
2018-07-26T10:48:32.372Z,9.50
2018-07-26T10:53:28.621Z,8.40
2018-07-26T11:00:53.064Z,8.80
2018-07-26T11:03:22.070Z,9.40
2018-07-26T11:05:50.306Z,9.80
2018-07-26T11:10:47.388Z,9.70
2018-07-26T11:13:15.772Z,10.40
2018-07-26T11:15:44.044Z,10.70
2018-07-26T11:18:12.306Z,10.70
2018-07-26T11:23:08.685Z,10.00
2018-07-26T11:25:37.066Z,9.60
2018-07-26T11:30:35.077Z,9.20
2018-07-26T11:33:03.447Z,9.00
2018-07-26T11:35:31.795Z,9.00
2018-07-26T11:38:00.489Z,8.90
2018-07-26T11:40:28.916Z,8.30
2018-07-26T11:42:57.763Z,8.30
2018-07-26T11:45:25.952Z,8.90
2018-07-26T11:47:54.305Z,9.50
2018-07-26T11:50:22.878Z,10.10
2018-07-26T11:55:19.237Z,10.50
2018-07-26T12:00:15.672Z,9.80
2018-07-26T12:02:44.190Z,9.40
2018-07-26T12:05:12.457Z,9.30
2018-07-26T12:07:41.915Z,8.70
2018-07-26T12:10:10.179Z,9.00
2018-07-26T12:12:38.436Z,9.10
2018-07-26T12:15:07.167Z,9.20
2018-07-26T12:17:35.465Z,9.30
2018-07-26T12:25:00.701Z,9.50
2018-07-26T12:29:57.117Z,9.20
2018-07-26T12:32:25.529Z,8.80
2018-07-26T12:39:50.257Z,7.70
2018-07-26T12:42:18.635Z,7.70
2018-07-26T12:44:46.737Z,7.90
2018-07-26T12:47:15.078Z,7.90
2018-07-26T12:49:43.291Z,7.40
2018-07-26T12:52:16.655Z,7.40
2018-07-26T12:54:44.738Z,7.40
2018-07-26T12:59:41.121Z,8.00
2018-07-26T13:02:10.059Z,7.80
2018-07-26T13:04:38.985Z,7.80
2018-07-26T13:07:07.186Z,7.70
2018-07-26T13:09:35.433Z,8.00
2018-07-26T13:12:03.714Z,7.90
2018-07-26T13:14:31.931Z,7.70
2018-07-26T13:17:00.205Z,7.50
2018-07-26T13:19:28.494Z,8.10
2018-07-26T13:21:56.657Z,8.70
2018-07-26T13:24:25.040Z,9.00
2018-07-26T13:26:53.171Z,8.60
2018-07-26T13:29:21.442Z,8.40
2018-07-26T13:34:18.520Z,9.30
2018-07-26T13:36:46.746Z,9.80
2018-07-26T13:39:14.901Z,10.80
2018-07-26T13:41:43.112Z,11.30
2018-07-26T13:44:11.278Z,11.40
2018-07-26T13:46:39.528Z,11.40
2018-07-26T13:49:07.673Z,11.60
2018-07-26T13:51:35.960Z,11.30
2018-07-26T13:54:04.406Z,11.20
2018-07-26T13:56:32.562Z,11.40
2018-07-26T13:59:00.654Z,11.50
2018-07-26T14:01:28.872Z,11.40
2018-07-26T14:03:57.103Z,11.90
2018-07-26T14:06:25.281Z,13.40
2018-07-26T14:11:21.828Z,16.60
2018-07-26T14:13:49.978Z,17.10
2018-07-26T14:16:18.276Z,17.90
2018-07-26T14:18:46.757Z,17.70
2018-07-26T14:21:15.714Z,18.30
2018-07-26T14:23:44.517Z,18.50
2018-07-26T14:26:13.175Z,19.20
2018-07-26T14:28:41.561Z,19.30
2018-07-26T14:31:10.962Z,19.10
2018-07-26T14:33:39.151Z,18.90
2018-07-26T14:36:07.362Z,19.30
2018-07-26T14:38:35.592Z,19.30
2018-07-26T14:41:03.929Z,19.40
2018-07-26T14:43:32.146Z,19.90
2018-07-26T14:46:00.378Z,20.40
2018-07-26T14:48:28.677Z,20.40
2018-07-26T14:50:56.760Z,20.50
2018-07-26T14:53:24.941Z,20.70
2018-07-26T14:55:53.216Z,21.00
2018-07-26T14:58:22.742Z,21.30
2018-07-26T15:00:51.061Z,21.20
2018-07-26T15:03:19.405Z,21.30
2018-07-26T15:05:48.112Z,20.90
2018-07-26T15:08:16.355Z,20.90
2018-07-26T15:10:45.588Z,21.00
2018-07-26T15:13:14.167Z,21.00
2018-07-26T15:15:42.411Z,21.40
2018-07-26T15:18:11.709Z,21.30
2018-07-26T15:20:39.969Z,20.60
2018-07-26T15:25:36.440Z,20.80
2018-07-26T15:28:04.717Z,20.60
2018-07-26T15:30:32.970Z,20.90
2018-07-26T15:33:01.143Z,21.60
2018-07-26T15:35:29.374Z,21.50
2018-07-26T15:37:57.599Z,21.80
2018-07-26T15:40:25.893Z,21.80
2018-07-26T15:42:54.132Z,22.40
2018-07-26T15:47:51.254Z,23.30
2018-07-26T15:50:19.508Z,23.20
2018-07-26T15:52:47.752Z,23.50
2018-07-26T15:57:44.387Z,23.70
2018-07-26T16:00:12.495Z,23.60
2018-07-26T16:02:40.804Z,23.10
2018-07-26T16:05:09.019Z,23.10
2018-07-26T16:07:37.744Z,23.10
2018-07-26T16:10:07.614Z,23.10
2018-07-26T16:12:36.114Z,22.50
2018-07-26T16:15:07.558Z,22.50
2018-07-26T16:17:35.862Z,22.70
2018-07-26T16:20:06.549Z,23.00
2018-07-26T16:22:34.761Z,23.30
2018-07-26T16:27:31.501Z,24.30
2018-07-26T16:30:00.284Z,24.60
2018-07-26T16:32:29.108Z,24.90
2018-07-26T16:34:58.807Z,24.80
2018-07-26T16:37:27.435Z,24.50
2018-07-26T16:39:55.670Z,24.50
2018-07-26T16:42:23.887Z,24.50
2018-07-26T16:44:52.450Z,24.50
2018-07-26T16:47:20.803Z,24.40
2018-07-26T16:49:49.960Z,24.30
2018-07-26T16:52:18.113Z,24.40
2018-07-26T16:54:46.383Z,24.30
2018-07-26T16:57:15.356Z,24.30
2018-07-26T16:59:43.524Z,24.40
2018-07-26T17:04:39.875Z,24.70
2018-07-26T17:12:04.630Z,25.20
2018-07-26T17:14:32.882Z,25.10
2018-07-26T17:21:57.622Z,25.00
2018-07-26T17:24:25.842Z,25.30
2018-07-26T17:26:53.974Z,25.50
2018-07-26T17:29:22.272Z,25.50
2018-07-26T17:31:51.289Z,25.80
2018-07-26T17:34:19.814Z,25.90
2018-07-26T17:39:16.401Z,26.40
2018-07-26T17:41:44.704Z,26.60
2018-07-26T17:44:12.935Z,26.80
2018-07-26T17:46:41.344Z,26.90
2018-07-26T17:49:09.557Z,27.10
2018-07-26T17:51:37.729Z,27.10
2018-07-26T17:54:06.035Z,27.20
2018-07-26T17:56:34.310Z,27.30
2018-07-26T18:01:30.843Z,27.40
2018-07-26T18:03:58.988Z,27.60
2018-07-26T18:06:27.241Z,27.60
2018-07-26T18:08:55.525Z,27.70
2018-07-26T18:11:23.716Z,28.50
2018-07-26T18:13:52.019Z,28.10
2018-07-26T18:16:20.277Z,28.40
2018-07-26T18:18:48.549Z,28.50
2018-07-26T18:21:16.847Z,28.50
2018-07-26T18:23:45.099Z,28.70
2018-07-26T18:26:13.528Z,28.90
2018-07-26T18:28:41.733Z,28.80
2018-07-26T18:31:10.544Z,28.90
2018-07-26T18:33:38.801Z,29.10
2018-07-26T18:36:06.958Z,29.20
2018-07-26T18:38:35.208Z,29.40
2018-07-26T18:41:04.428Z,29.40
2018-07-26T18:46:00.751Z,29.60
2018-07-26T18:48:29.146Z,29.70
2018-07-26T18:55:54.318Z,30.00
2018-07-26T18:58:23.374Z,30.20
2018-07-26T19:00:51.699Z,31.30
2018-07-26T19:03:19.969Z,30.90
2018-07-26T19:05:48.900Z,32.10
2018-07-26T19:08:17.145Z,32.90
2018-07-26T19:10:45.382Z,32.90
2018-07-26T19:15:41.894Z,32.40
2018-07-26T19:18:11.155Z,31.40
2018-07-26T19:20:39.750Z,32.30
2018-07-26T19:23:07.967Z,33.10
2018-07-26T19:25:36.212Z,31.90
2018-07-26T19:28:05.122Z,31.90
2018-07-26T19:30:33.435Z,32.60
2018-07-26T19:33:01.745Z,32.60
2018-07-26T19:35:30.336Z,32.50
2018-07-26T19:40:27.628Z,33.80
2018-07-26T19:42:55.922Z,34.10
2018-07-26T19:45:24.100Z,33.60
2018-07-26T19:47:53.176Z,34.70
2018-07-26T19:50:23.470Z,34.40
2018-07-26T19:52:51.820Z,34.20
2018-07-26T19:55:20.054Z,34.20
2018-07-26T19:57:48.245Z,34.30
2018-07-26T20:00:16.552Z,34.80
2018-07-26T20:02:44.801Z,34.30
2018-07-26T20:05:13.477Z,35.40
2018-07-26T20:07:42.384Z,35.00
2018-07-26T20:10:12.301Z,35.50
2018-07-26T20:12:40.921Z,35.20
2018-07-26T20:15:09.235Z,35.60
2018-07-26T20:20:13.810Z,35.20
2018-07-26T20:22:42.345Z,35.90
2018-07-26T20:25:10.663Z,36.00
2018-07-26T20:27:39.072Z,36.00
2018-07-26T20:32:37.471Z,36.30
2018-07-26T20:35:06.010Z,36.30
2018-07-26T20:37:34.203Z,36.50
2018-07-26T20:40:03.177Z,36.50
2018-07-26T20:42:31.356Z,36.20
2018-07-26T20:44:59.573Z,36.30
2018-07-26T20:50:01.327Z,36.90
2018-07-26T20:52:30.425Z,37.20
2018-07-26T20:54:59.777Z,37.10
2018-07-26T20:57:28.411Z,37.20
2018-07-26T20:59:56.541Z,37.50
2018-07-26T21:02:24.726Z,37.50
2018-07-26T21:07:31.076Z,37.90
2018-07-26T21:10:09.244Z,38.20
2018-07-26T21:12:37.688Z,38.10
2018-07-26T21:15:09.590Z,38.20
2018-07-26T21:17:38.219Z,38.50
2018-07-26T21:20:07.940Z,38.20
2018-07-26T21:22:46.290Z,38.50
2018-07-26T21:25:22.206Z,38.30
2018-07-26T21:27:51.842Z,38.30
2018-07-26T21:30:35.488Z,38.40
2018-07-26T21:33:05.578Z,38.60
2018-07-26T21:35:33.744Z,39.00
2018-07-26T21:38:01.971Z,39.10
2018-07-26T21:43:42.365Z,39.60
2018-07-26T21:46:13.925Z,39.90
2018-07-26T21:48:52.033Z,40.50
2018-07-26T21:51:21.680Z,40.50
2018-07-26T21:54:03.191Z,40.70
2018-07-26T21:59:16.169Z,41.10
2018-07-26T22:01:45.048Z,41.30
2018-07-26T22:04:13.590Z,41.20
2018-07-26T22:06:41.859Z,41.70
2018-07-26T22:09:11.067Z,41.40
2018-07-26T22:11:39.875Z,41.50
2018-07-26T22:14:08.588Z,41.70
2018-07-26T22:16:36.956Z,41.40
2018-07-26T22:19:05.307Z,41.80
2018-07-26T22:21:33.470Z,42.10
2018-07-26T22:24:01.660Z,42.50
2018-07-26T22:26:30.993Z,42.40
2018-07-26T22:28:59.259Z,42.70
2018-07-26T22:31:27.910Z,42.10
2018-07-26T22:33:56.850Z,41.90
2018-07-26T22:36:30.344Z,41.90
2018-07-26T22:38:58.516Z,42.10
2018-07-26T22:41:27.923Z,42.10
2018-07-26T22:43:56.351Z,42.10
2018-07-26T22:46:25.461Z,42.30
2018-07-26T22:51:29.248Z,42.70
2018-07-26T22:53:59.980Z,42.60
2018-07-26T22:59:11.009Z,42.90
2018-07-26T23:01:43.832Z,43.10
2018-07-26T23:04:33.471Z,43.80
2018-07-26T23:07:33.542Z,43.30
2018-07-26T23:10:29.300Z,43.50
2018-07-26T23:12:57.432Z,43.90
2018-07-26T23:15:25.632Z,43.70
2018-07-26T23:17:53.745Z,43.60
2018-07-26T23:20:22.104Z,43.70
2018-07-26T23:25:21.424Z,44.10
2018-07-26T23:27:49.716Z,44.10
2018-07-26T23:30:17.994Z,44.20
2018-07-26T23:32:46.258Z,44.50
2018-07-26T23:35:15.923Z,44.60
2018-07-26T23:37:44.936Z,44.80
2018-07-26T23:40:13.327Z,44.80
2018-07-26T23:42:41.519Z,45.60
2018-07-26T23:45:09.628Z,45.10
2018-07-26T23:47:37.752Z,45.30
2018-07-26T23:52:34.693Z,45.60
2018-07-26T23:55:02.934Z,45.80
2018-07-26T23:57:31.100Z,46.00
2018-07-26T23:59:59.905Z,46.20
